sensor_id;sensor_type;location;lat;lon;timestamp;P1;durP1;ratioP1;P2;durP2;ratioP2
76463;SDS011;65301;46.666;20.110;2024-03-22T00:02:23;18.80;;;11.17;;
76463;SDS011;65301;46.666;20.110;2024-03-22T00:05:24;19.38;;;10.43;;
76463;SDS011;65301;46.666;20.110;2024-03-22T00:08:24;19.30;;;10.70;;
76463;SDS011;65301;46.666;20.110;2024-03-22T00:11:25;19.13;;;10.40;;
76463;SDS011;65301;46.666;20.110;2024-03-22T00:14:26;19.55;;;11.48;;
76463;SDS011;65301;46.666;20.110;2024-03-22T00:17:27;23.93;;;11.57;;
76463;SDS011;65301;46.666;20.110;2024-03-22T00:20:28;21.80;;;11.48;;
76463;SDS011;65301;46.666;20.110;2024-03-22T00:23:28;18.57;;;10.67;;
76463;SDS011;65301;46.666;20.110;2024-03-22T00:26:31;23.05;;;10.82;;
76463;SDS011;65301;46.666;20.110;2024-03-22T00:29:31;21.65;;;11.70;;
76463;SDS011;65301;46.666;20.110;2024-03-22T00:32:32;20.00;;;11.60;;
76463;SDS011;65301;46.666;20.110;2024-03-22T00:35:33;19.70;;;11.00;;
76463;SDS011;65301;46.666;20.110;2024-03-22T00:38:34;24.30;;;11.43;;
76463;SDS011;65301;46.666;20.110;2024-03-22T00:41:34;27.47;;;12.17;;
76463;SDS011;65301;46.666;20.110;2024-03-22T00:44:35;18.33;;;10.90;;
76463;SDS011;65301;46.666;20.110;2024-03-22T00:47:36;20.70;;;11.90;;
76463;SDS011;65301;46.666;20.110;2024-03-22T00:50:37;19.35;;;11.05;;
76463;SDS011;65301;46.666;20.110;2024-03-22T00:53:38;23.73;;;11.17;;
76463;SDS011;65301;46.666;20.110;2024-03-22T00:56:38;22.65;;;11.65;;
76463;SDS011;65301;46.666;20.110;2024-03-22T00:59:39;18.03;;;11.27;;
76463;SDS011;65301;46.666;20.110;2024-03-22T01:02:40;19.40;;;11.57;;
76463;SDS011;65301;46.666;20.110;2024-03-22T01:05:41;17.80;;;10.27;;
76463;SDS011;65301;46.666;20.110;2024-03-22T01:08:43;19.48;;;11.05;;
76463;SDS011;65301;46.666;20.110;2024-03-22T01:11:43;20.70;;;11.15;;
76463;SDS011;65301;46.666;20.110;2024-03-22T01:14:44;19.50;;;10.50;;
76463;SDS011;65301;46.666;20.110;2024-03-22T01:17:45;19.42;;;10.95;;
76463;SDS011;65301;46.666;20.110;2024-03-22T01:20:46;19.60;;;10.47;;
76463;SDS011;65301;46.666;20.110;2024-03-22T01:23:46;19.58;;;10.77;;
76463;SDS011;65301;46.666;20.110;2024-03-22T01:26:47;20.20;;;10.20;;
76463;SDS011;65301;46.666;20.110;2024-03-22T01:29:48;21.92;;;10.55;;
76463;SDS011;65301;46.666;20.110;2024-03-22T01:32:49;18.80;;;10.50;;
76463;SDS011;65301;46.666;20.110;2024-03-22T01:35:49;21.85;;;10.82;;
76463;SDS011;65301;46.666;20.110;2024-03-22T01:38:50;19.17;;;10.83;;
76463;SDS011;65301;46.666;20.110;2024-03-22T01:41:51;17.63;;;9.93;;
76463;SDS011;65301;46.666;20.110;2024-03-22T01:44:52;18.43;;;10.90;;
76463;SDS011;65301;46.666;20.110;2024-03-22T01:47:52;20.73;;;10.35;;
76463;SDS011;65301;46.666;20.110;2024-03-22T01:50:54;20.70;;;10.27;;
76463;SDS011;65301;46.666;20.110;2024-03-22T01:53:55;19.17;;;10.33;;
76463;SDS011;65301;46.666;20.110;2024-03-22T01:56:56;19.35;;;10.35;;
76463;SDS011;65301;46.666;20.110;2024-03-22T01:59:57;21.65;;;11.07;;
76463;SDS011;65301;46.666;20.110;2024-03-22T02:03:00;24.27;;;12.25;;
76463;SDS011;65301;46.666;20.110;2024-03-22T02:06:00;23.03;;;11.90;;
76463;SDS011;65301;46.666;20.110;2024-03-22T02:09:01;21.00;;;11.27;;
76463;SDS011;65301;46.666;20.110;2024-03-22T02:12:05;22.90;;;11.73;;
76463;SDS011;65301;46.666;20.110;2024-03-22T02:15:06;18.60;;;10.87;;
76463;SDS011;65301;46.666;20.110;2024-03-22T02:18:07;23.30;;;11.82;;
76463;SDS011;65301;46.666;20.110;2024-03-22T02:21:08;22.52;;;11.40;;
76463;SDS011;65301;46.666;20.110;2024-03-22T02:24:09;20.27;;;10.87;;
76463;SDS011;65301;46.666;20.110;2024-03-22T02:27:10;20.92;;;11.32;;
76463;SDS011;65301;46.666;20.110;2024-03-22T02:30:10;22.17;;;11.77;;
76463;SDS011;65301;46.666;20.110;2024-03-22T02:33:11;25.45;;;12.23;;
76463;SDS011;65301;46.666;20.110;2024-03-22T02:36:12;21.92;;;12.35;;
76463;SDS011;65301;46.666;20.110;2024-03-22T02:39:13;22.63;;;12.67;;
76463;SDS011;65301;46.666;20.110;2024-03-22T02:42:13;24.15;;;11.88;;
76463;SDS011;65301;46.666;20.110;2024-03-22T02:45:14;24.73;;;13.00;;
76463;SDS011;65301;46.666;20.110;2024-03-22T02:48:15;21.85;;;12.52;;
76463;SDS011;65301;46.666;20.110;2024-03-22T02:51:16;25.40;;;12.47;;
76463;SDS011;65301;46.666;20.110;2024-03-22T02:54:16;27.30;;;13.98;;
76463;SDS011;65301;46.666;20.110;2024-03-22T02:57:17;28.40;;;14.03;;
76463;SDS011;65301;46.666;20.110;2024-03-22T03:00:20;25.17;;;12.90;;
76463;SDS011;65301;46.666;20.110;2024-03-22T03:03:21;26.00;;;13.45;;
76463;SDS011;65301;46.666;20.110;2024-03-22T03:06:21;27.20;;;13.10;;
76463;SDS011;65301;46.666;20.110;2024-03-22T03:09:22;28.42;;;14.07;;
76463;SDS011;65301;46.666;20.110;2024-03-22T03:12:23;26.67;;;13.30;;
76463;SDS011;65301;46.666;20.110;2024-03-22T03:15:24;26.23;;;14.13;;
76463;SDS011;65301;46.666;20.110;2024-03-22T03:18:24;25.00;;;13.93;;
76463;SDS011;65301;46.666;20.110;2024-03-22T03:21:25;23.02;;;13.13;;
76463;SDS011;65301;46.666;20.110;2024-03-22T03:24:26;31.07;;;16.03;;
76463;SDS011;65301;46.666;20.110;2024-03-22T03:27:27;30.20;;;15.20;;
76463;SDS011;65301;46.666;20.110;2024-03-22T03:30:27;34.17;;;17.73;;
76463;SDS011;65301;46.666;20.110;2024-03-22T03:33:28;30.77;;;16.80;;
76463;SDS011;65301;46.666;20.110;2024-03-22T03:36:30;34.53;;;17.50;;
76463;SDS011;65301;46.666;20.110;2024-03-22T03:39:30;28.70;;;16.37;;
76463;SDS011;65301;46.666;20.110;2024-03-22T03:42:31;30.38;;;15.48;;
76463;SDS011;65301;46.666;20.110;2024-03-22T03:45:32;33.73;;;17.13;;
76463;SDS011;65301;46.666;20.110;2024-03-22T03:48:33;34.22;;;17.63;;
76463;SDS011;65301;46.666;20.110;2024-03-22T03:51:33;33.97;;;17.13;;
76463;SDS011;65301;46.666;20.110;2024-03-22T03:54:34;32.75;;;16.95;;
76463;SDS011;65301;46.666;20.110;2024-03-22T03:57:35;34.17;;;16.17;;
76463;SDS011;65301;46.666;20.110;2024-03-22T04:00:36;34.15;;;18.27;;
76463;SDS011;65301;46.666;20.110;2024-03-22T04:03:36;41.40;;;20.03;;
76463;SDS011;65301;46.666;20.110;2024-03-22T04:06:37;36.63;;;17.75;;
76463;SDS011;65301;46.666;20.110;2024-03-22T04:09:38;35.13;;;18.23;;
76463;SDS011;65301;46.666;20.110;2024-03-22T04:12:39;39.85;;;19.48;;
76463;SDS011;65301;46.666;20.110;2024-03-22T04:15:39;37.10;;;19.30;;
76463;SDS011;65301;46.666;20.110;2024-03-22T04:18:40;35.17;;;18.88;;
76463;SDS011;65301;46.666;20.110;2024-03-22T04:21:41;39.30;;;19.43;;
76463;SDS011;65301;46.666;20.110;2024-03-22T04:24:42;35.05;;;17.95;;
76463;SDS011;65301;46.666;20.110;2024-03-22T04:27:42;43.37;;;19.90;;
76463;SDS011;65301;46.666;20.110;2024-03-22T04:30:43;40.47;;;19.23;;
76463;SDS011;65301;46.666;20.110;2024-03-22T04:33:44;45.03;;;20.00;;
76463;SDS011;65301;46.666;20.110;2024-03-22T04:36:45;42.88;;;19.95;;
76463;SDS011;65301;46.666;20.110;2024-03-22T04:39:46;38.90;;;20.47;;
76463;SDS011;65301;46.666;20.110;2024-03-22T04:42:47;38.50;;;21.23;;
76463;SDS011;65301;46.666;20.110;2024-03-22T04:45:47;41.10;;;22.00;;
76463;SDS011;65301;46.666;20.110;2024-03-22T04:48:48;40.60;;;20.20;;
76463;SDS011;65301;46.666;20.110;2024-03-22T04:51:49;33.35;;;18.23;;
76463;SDS011;65301;46.666;20.110;2024-03-22T04:54:50;37.00;;;18.17;;
76463;SDS011;65301;46.666;20.110;2024-03-22T04:57:52;36.25;;;18.77;;
76463;SDS011;65301;46.666;20.110;2024-03-22T05:00:56;39.20;;;19.90;;
76463;SDS011;65301;46.666;20.110;2024-03-22T05:03:57;38.60;;;18.90;;
76463;SDS011;65301;46.666;20.110;2024-03-22T05:06:58;45.37;;;20.80;;
76463;SDS011;65301;46.666;20.110;2024-03-22T05:09:59;39.20;;;20.40;;
76463;SDS011;65301;46.666;20.110;2024-03-22T05:13:00;39.67;;;18.97;;
76463;SDS011;65301;46.666;20.110;2024-03-22T05:16:01;37.30;;;19.30;;
76463;SDS011;65301;46.666;20.110;2024-03-22T05:19:02;42.78;;;18.45;;
76463;SDS011;65301;46.666;20.110;2024-03-22T05:22:03;36.80;;;17.23;;
76463;SDS011;65301;46.666;20.110;2024-03-22T05:25:04;43.28;;;18.98;;
76463;SDS011;65301;46.666;20.110;2024-03-22T05:28:05;34.83;;;18.33;;
76463;SDS011;65301;46.666;20.110;2024-03-22T05:31:05;26.50;;;15.67;;
76463;SDS011;65301;46.666;20.110;2024-03-22T05:34:06;31.95;;;15.70;;
76463;SDS011;65301;46.666;20.110;2024-03-22T05:37:07;37.83;;;17.13;;
76463;SDS011;65301;46.666;20.110;2024-03-22T05:40:09;32.08;;;15.88;;
76463;SDS011;65301;46.666;20.110;2024-03-22T05:43:11;32.55;;;16.42;;
76463;SDS011;65301;46.666;20.110;2024-03-22T05:46:11;34.63;;;16.80;;
76463;SDS011;65301;46.666;20.110;2024-03-22T05:49:13;30.83;;;16.95;;
76463;SDS011;65301;46.666;20.110;2024-03-22T05:52:14;32.30;;;16.65;;
76463;SDS011;65301;46.666;20.110;2024-03-22T05:55:15;30.93;;;16.77;;
76463;SDS011;65301;46.666;20.110;2024-03-22T05:58:15;33.40;;;16.60;;
76463;SDS011;65301;46.666;20.110;2024-03-22T06:05:29;31.70;;;16.97;;
76463;SDS011;65301;46.666;20.110;2024-03-22T06:08:29;30.20;;;15.63;;
76463;SDS011;65301;46.666;20.110;2024-03-22T06:11:32;35.53;;;18.80;;
76463;SDS011;65301;46.666;20.110;2024-03-22T06:14:33;31.77;;;16.83;;
76463;SDS011;65301;46.666;20.110;2024-03-22T06:17:33;36.10;;;17.95;;
76463;SDS011;65301;46.666;20.110;2024-03-22T06:20:34;31.83;;;17.42;;
76463;SDS011;65301;46.666;20.110;2024-03-22T06:23:35;35.00;;;17.60;;
76463;SDS011;65301;46.666;20.110;2024-03-22T06:26:36;27.63;;;15.40;;
76463;SDS011;65301;46.666;20.110;2024-03-22T06:29:37;26.90;;;15.07;;
76463;SDS011;65301;46.666;20.110;2024-03-22T06:32:38;29.07;;;15.77;;
76463;SDS011;65301;46.666;20.110;2024-03-22T06:35:39;29.10;;;15.57;;
76463;SDS011;65301;46.666;20.110;2024-03-22T06:38:41;33.15;;;16.13;;
76463;SDS011;65301;46.666;20.110;2024-03-22T06:41:41;25.73;;;15.13;;
76463;SDS011;65301;46.666;20.110;2024-03-22T06:44:42;27.80;;;14.43;;
76463;SDS011;65301;46.666;20.110;2024-03-22T06:47:43;26.07;;;13.97;;
76463;SDS011;65301;46.666;20.110;2024-03-22T06:50:44;25.92;;;13.93;;
76463;SDS011;65301;46.666;20.110;2024-03-22T06:53:45;28.05;;;14.85;;
76463;SDS011;65301;46.666;20.110;2024-03-22T06:56:48;36.13;;;19.35;;
76463;SDS011;65301;46.666;20.110;2024-03-22T06:59:49;37.30;;;15.90;;
76463;SDS011;65301;46.666;20.110;2024-03-22T07:02:50;27.63;;;14.73;;
76463;SDS011;65301;46.666;20.110;2024-03-22T07:05:51;29.45;;;15.40;;
76463;SDS011;65301;46.666;20.110;2024-03-22T07:08:54;28.03;;;15.07;;
76463;SDS011;65301;46.666;20.110;2024-03-22T07:11:55;32.35;;;15.70;;
76463;SDS011;65301;46.666;20.110;2024-03-22T07:14:56;26.92;;;14.32;;
76463;SDS011;65301;46.666;20.110;2024-03-22T07:17:58;28.17;;;15.90;;
76463;SDS011;65301;46.666;20.110;2024-03-22T07:20:59;33.80;;;15.70;;
76463;SDS011;65301;46.666;20.110;2024-03-22T07:24:01;33.03;;;16.23;;
76463;SDS011;65301;46.666;20.110;2024-03-22T07:27:03;33.25;;;15.85;;
76463;SDS011;65301;46.666;20.110;2024-03-22T07:30:06;30.40;;;15.73;;
76463;SDS011;65301;46.666;20.110;2024-03-22T07:33:10;28.63;;;15.70;;
76463;SDS011;65301;46.666;20.110;2024-03-22T07:36:16;30.33;;;16.33;;
76463;SDS011;65301;46.666;20.110;2024-03-22T07:39:18;29.80;;;16.52;;
76463;SDS011;65301;46.666;20.110;2024-03-22T07:42:19;31.58;;;17.70;;
76463;SDS011;65301;46.666;20.110;2024-03-22T07:45:21;29.88;;;16.25;;
76463;SDS011;65301;46.666;20.110;2024-03-22T07:48:22;29.27;;;16.93;;
76463;SDS011;65301;46.666;20.110;2024-03-22T07:51:25;33.63;;;17.25;;
76463;SDS011;65301;46.666;20.110;2024-03-22T07:54:26;32.15;;;16.88;;
76463;SDS011;65301;46.666;20.110;2024-03-22T07:57:27;31.60;;;16.67;;
76463;SDS011;65301;46.666;20.110;2024-03-22T08:00:28;29.48;;;16.08;;
76463;SDS011;65301;46.666;20.110;2024-03-22T08:03:29;26.92;;;16.48;;
76463;SDS011;65301;46.666;20.110;2024-03-22T08:06:29;26.70;;;16.33;;
76463;SDS011;65301;46.666;20.110;2024-03-22T08:09:30;26.95;;;16.75;;
76463;SDS011;65301;46.666;20.110;2024-03-22T08:12:31;28.73;;;15.93;;
76463;SDS011;65301;46.666;20.110;2024-03-22T08:15:32;29.90;;;16.45;;
76463;SDS011;65301;46.666;20.110;2024-03-22T08:18:33;29.50;;;16.27;;
76463;SDS011;65301;46.666;20.110;2024-03-22T08:21:33;29.03;;;17.33;;
76463;SDS011;65301;46.666;20.110;2024-03-22T08:24:35;28.17;;;17.10;;
76463;SDS011;65301;46.666;20.110;2024-03-22T08:27:35;28.97;;;16.80;;
76463;SDS011;65301;46.666;20.110;2024-03-22T08:30:39;37.28;;;17.75;;
76463;SDS011;65301;46.666;20.110;2024-03-22T08:33:40;29.92;;;16.40;;
76463;SDS011;65301;46.666;20.110;2024-03-22T08:36:41;28.57;;;16.93;;
76463;SDS011;65301;46.666;20.110;2024-03-22T08:39:42;28.63;;;16.60;;
76463;SDS011;65301;46.666;20.110;2024-03-22T08:42:42;29.13;;;16.70;;
76463;SDS011;65301;46.666;20.110;2024-03-22T08:45:43;31.63;;;17.03;;
76463;SDS011;65301;46.666;20.110;2024-03-22T08:48:44;30.35;;;16.52;;
76463;SDS011;65301;46.666;20.110;2024-03-22T08:51:45;32.43;;;16.93;;
76463;SDS011;65301;46.666;20.110;2024-03-22T08:54:46;30.45;;;16.40;;
76463;SDS011;65301;46.666;20.110;2024-03-22T08:57:47;30.87;;;17.67;;
76463;SDS011;65301;46.666;20.110;2024-03-22T09:00:48;27.00;;;17.02;;
76463;SDS011;65301;46.666;20.110;2024-03-22T09:03:48;28.37;;;17.03;;
76463;SDS011;65301;46.666;20.110;2024-03-22T09:06:51;27.63;;;16.17;;
76463;SDS011;65301;46.666;20.110;2024-03-22T09:09:52;26.38;;;17.23;;
76463;SDS011;65301;46.666;20.110;2024-03-22T09:12:53;30.67;;;16.83;;
76463;SDS011;65301;46.666;20.110;2024-03-22T09:15:57;28.50;;;18.00;;
76463;SDS011;65301;46.666;20.110;2024-03-22T09:19:01;30.48;;;19.30;;
76463;SDS011;65301;46.666;20.110;2024-03-22T09:22:20;36.97;;;24.33;;
76463;SDS011;65301;46.666;20.110;2024-03-22T09:25:21;33.10;;;20.27;;
76463;SDS011;65301;46.666;20.110;2024-03-22T09:28:21;30.73;;;18.20;;
76463;SDS011;65301;46.666;20.110;2024-03-22T09:31:22;30.23;;;17.80;;
76463;SDS011;65301;46.666;20.110;2024-03-22T09:34:23;32.38;;;18.70;;
76463;SDS011;65301;46.666;20.110;2024-03-22T09:37:24;35.47;;;17.27;;
76463;SDS011;65301;46.666;20.110;2024-03-22T09:40:25;28.08;;;18.60;;
76463;SDS011;65301;46.666;20.110;2024-03-22T09:43:29;33.28;;;17.58;;
76463;SDS011;65301;46.666;20.110;2024-03-22T09:46:33;26.53;;;16.97;;
76463;SDS011;65301;46.666;20.110;2024-03-22T09:49:34;31.98;;;18.38;;
76463;SDS011;65301;46.666;20.110;2024-03-22T09:52:37;29.10;;;17.52;;
76463;SDS011;65301;46.666;20.110;2024-03-22T09:55:38;31.65;;;17.77;;
76463;SDS011;65301;46.666;20.110;2024-03-22T09:58:44;31.10;;;17.70;;
76463;SDS011;65301;46.666;20.110;2024-03-22T10:01:45;36.53;;;18.73;;
76463;SDS011;65301;46.666;20.110;2024-03-22T10:04:46;27.88;;;17.13;;
76463;SDS011;65301;46.666;20.110;2024-03-22T10:07:47;34.47;;;18.40;;
76463;SDS011;65301;46.666;20.110;2024-03-22T10:10:49;30.95;;;18.20;;
76463;SDS011;65301;46.666;20.110;2024-03-22T10:13:50;29.13;;;17.27;;
76463;SDS011;65301;46.666;20.110;2024-03-22T10:16:51;31.80;;;17.15;;
76463;SDS011;65301;46.666;20.110;2024-03-22T10:19:56;34.78;;;18.27;;
76463;SDS011;65301;46.666;20.110;2024-03-22T10:22:57;30.03;;;18.37;;
76463;SDS011;65301;46.666;20.110;2024-03-22T10:25:59;32.25;;;19.30;;
76463;SDS011;65301;46.666;20.110;2024-03-22T10:29:03;31.80;;;17.35;;
76463;SDS011;65301;46.666;20.110;2024-03-22T10:32:07;27.92;;;16.85;;
76463;SDS011;65301;46.666;20.110;2024-03-22T10:35:13;27.63;;;16.40;;
76463;SDS011;65301;46.666;20.110;2024-03-22T10:38:30;30.83;;;17.33;;
76463;SDS011;65301;46.666;20.110;2024-03-22T10:42:03;27.55;;;15.68;;
76463;SDS011;65301;46.666;20.110;2024-03-22T10:45:31;29.75;;;15.73;;
76463;SDS011;65301;46.666;20.110;2024-03-22T10:48:51;27.83;;;16.48;;
76463;SDS011;65301;46.666;20.110;2024-03-22T10:52:12;24.73;;;15.60;;
76463;SDS011;65301;46.666;20.110;2024-03-22T10:55:33;30.10;;;16.30;;
76463;SDS011;65301;46.666;20.110;2024-03-22T10:58:51;28.25;;;15.70;;
76463;SDS011;65301;46.666;20.110;2024-03-22T11:01:53;28.58;;;15.75;;
76463;SDS011;65301;46.666;20.110;2024-03-22T11:04:57;25.58;;;13.73;;
76463;SDS011;65301;46.666;20.110;2024-03-22T11:08:02;26.63;;;14.47;;
76463;SDS011;65301;46.666;20.110;2024-03-22T11:11:10;30.73;;;15.53;;
76463;SDS011;65301;46.666;20.110;2024-03-22T11:14:11;24.88;;;13.57;;
76463;SDS011;65301;46.666;20.110;2024-03-22T11:17:12;55.00;;;17.90;;
76463;SDS011;65301;46.666;20.110;2024-03-22T11:20:13;22.73;;;14.13;;
76463;SDS011;65301;46.666;20.110;2024-03-22T11:23:16;24.55;;;13.70;;
76463;SDS011;65301;46.666;20.110;2024-03-22T11:26:17;25.23;;;14.10;;
76463;SDS011;65301;46.666;20.110;2024-03-22T11:29:18;24.90;;;14.00;;
76463;SDS011;65301;46.666;20.110;2024-03-22T11:32:19;23.73;;;13.07;;
76463;SDS011;65301;46.666;20.110;2024-03-22T11:35:20;24.45;;;12.80;;
76463;SDS011;65301;46.666;20.110;2024-03-22T11:38:21;21.95;;;13.73;;
76463;SDS011;65301;46.666;20.110;2024-03-22T11:41:26;25.70;;;13.90;;
76463;SDS011;65301;46.666;20.110;2024-03-22T11:44:30;24.70;;;14.30;;
76463;SDS011;65301;46.666;20.110;2024-03-22T11:47:33;23.90;;;14.63;;
76463;SDS011;65301;46.666;20.110;2024-03-22T11:50:34;24.37;;;14.17;;
76463;SDS011;65301;46.666;20.110;2024-03-22T11:53:36;25.10;;;14.32;;
76463;SDS011;65301;46.666;20.110;2024-03-22T11:56:39;23.48;;;14.07;;
76463;SDS011;65301;46.666;20.110;2024-03-22T11:59:40;21.52;;;12.80;;
76463;SDS011;65301;46.666;20.110;2024-03-22T12:02:41;26.07;;;14.23;;
76463;SDS011;65301;46.666;20.110;2024-03-22T12:05:42;21.92;;;14.25;;
76463;SDS011;65301;46.666;20.110;2024-03-22T12:08:43;24.73;;;14.75;;
76463;SDS011;65301;46.666;20.110;2024-03-22T12:11:44;22.03;;;14.33;;
76463;SDS011;65301;46.666;20.110;2024-03-22T12:14:44;22.80;;;13.57;;
76463;SDS011;65301;46.666;20.110;2024-03-22T12:17:45;26.90;;;14.18;;
76463;SDS011;65301;46.666;20.110;2024-03-22T12:20:46;26.03;;;15.73;;
76463;SDS011;65301;46.666;20.110;2024-03-22T12:23:47;24.13;;;15.25;;
76463;SDS011;65301;46.666;20.110;2024-03-22T12:26:48;23.53;;;14.53;;
76463;SDS011;65301;46.666;20.110;2024-03-22T12:29:48;22.92;;;14.38;;
76463;SDS011;65301;46.666;20.110;2024-03-22T12:32:52;19.70;;;12.90;;
76463;SDS011;65301;46.666;20.110;2024-03-22T12:35:53;24.73;;;14.87;;
76463;SDS011;65301;46.666;20.110;2024-03-22T12:38:53;22.27;;;15.10;;
76463;SDS011;65301;46.666;20.110;2024-03-22T12:41:54;23.35;;;14.75;;
76463;SDS011;65301;46.666;20.110;2024-03-22T12:44:55;26.23;;;15.13;;
76463;SDS011;65301;46.666;20.110;2024-03-22T12:47:56;26.25;;;15.73;;
76463;SDS011;65301;46.666;20.110;2024-03-22T12:50:57;23.53;;;14.90;;
76463;SDS011;65301;46.666;20.110;2024-03-22T12:53:58;26.63;;;16.15;;
76463;SDS011;65301;46.666;20.110;2024-03-22T12:56:58;25.60;;;16.77;;
76463;SDS011;65301;46.666;20.110;2024-03-22T12:59:59;24.20;;;16.40;;
76463;SDS011;65301;46.666;20.110;2024-03-22T13:03:00;22.88;;;15.57;;
76463;SDS011;65301;46.666;20.110;2024-03-22T13:06:01;26.40;;;15.43;;
76463;SDS011;65301;46.666;20.110;2024-03-22T13:09:02;24.33;;;16.47;;
76463;SDS011;65301;46.666;20.110;2024-03-22T13:12:05;24.08;;;15.80;;
76463;SDS011;65301;46.666;20.110;2024-03-22T13:15:08;25.10;;;16.65;;
76463;SDS011;65301;46.666;20.110;2024-03-22T13:18:09;24.83;;;16.65;;
76463;SDS011;65301;46.666;20.110;2024-03-22T13:21:09;24.57;;;15.83;;
76463;SDS011;65301;46.666;20.110;2024-03-22T13:24:11;24.38;;;16.65;;
76463;SDS011;65301;46.666;20.110;2024-03-22T13:27:13;22.27;;;15.18;;
76463;SDS011;65301;46.666;20.110;2024-03-22T13:30:14;23.15;;;14.57;;
76463;SDS011;65301;46.666;20.110;2024-03-22T13:33:15;28.17;;;15.10;;
76463;SDS011;65301;46.666;20.110;2024-03-22T13:36:16;23.88;;;14.50;;
76463;SDS011;65301;46.666;20.110;2024-03-22T13:39:18;23.40;;;15.88;;
76463;SDS011;65301;46.666;20.110;2024-03-22T13:42:19;21.10;;;14.93;;
76463;SDS011;65301;46.666;20.110;2024-03-22T13:45:20;19.93;;;13.10;;
76463;SDS011;65301;46.666;20.110;2024-03-22T13:48:21;19.85;;;13.02;;
76463;SDS011;65301;46.666;20.110;2024-03-22T13:51:26;19.15;;;13.25;;
76463;SDS011;65301;46.666;20.110;2024-03-22T13:54:28;19.97;;;13.27;;
76463;SDS011;65301;46.666;20.110;2024-03-22T13:57:29;20.80;;;13.93;;
76463;SDS011;65301;46.666;20.110;2024-03-22T14:00:30;24.17;;;14.27;;
76463;SDS011;65301;46.666;20.110;2024-03-22T14:03:31;20.23;;;13.77;;
76463;SDS011;65301;46.666;20.110;2024-03-22T14:06:32;20.85;;;13.52;;
76463;SDS011;65301;46.666;20.110;2024-03-22T14:09:33;20.05;;;13.35;;
76463;SDS011;65301;46.666;20.110;2024-03-22T14:12:34;21.60;;;13.07;;
76463;SDS011;65301;46.666;20.110;2024-03-22T14:15:35;21.33;;;13.60;;
76463;SDS011;65301;46.666;20.110;2024-03-22T14:18:36;17.40;;;12.60;;
76463;SDS011;65301;46.666;20.110;2024-03-22T14:21:37;21.47;;;14.37;;
76463;SDS011;65301;46.666;20.110;2024-03-22T14:24:39;17.50;;;12.47;;
76463;SDS011;65301;46.666;20.110;2024-03-22T14:27:40;19.60;;;13.15;;
76463;SDS011;65301;46.666;20.110;2024-03-22T14:30:45;19.33;;;12.68;;
76463;SDS011;65301;46.666;20.110;2024-03-22T14:33:46;22.50;;;13.50;;
76463;SDS011;65301;46.666;20.110;2024-03-22T14:36:46;25.30;;;17.50;;
76463;SDS011;65301;46.666;20.110;2024-03-22T14:39:47;21.87;;;14.33;;
76463;SDS011;65301;46.666;20.110;2024-03-22T14:42:48;19.45;;;13.18;;
76463;SDS011;65301;46.666;20.110;2024-03-22T14:45:49;20.85;;;12.93;;
76463;SDS011;65301;46.666;20.110;2024-03-22T14:48:50;23.23;;;14.10;;
76463;SDS011;65301;46.666;20.110;2024-03-22T14:51:51;20.42;;;14.30;;
76463;SDS011;65301;46.666;20.110;2024-03-22T14:54:52;19.25;;;12.70;;
76463;SDS011;65301;46.666;20.110;2024-03-22T14:57:53;21.57;;;13.90;;
76463;SDS011;65301;46.666;20.110;2024-03-22T15:00:54;21.55;;;14.15;;
76463;SDS011;65301;46.666;20.110;2024-03-22T15:03:56;19.58;;;12.93;;
76463;SDS011;65301;46.666;20.110;2024-03-22T15:06:56;19.47;;;12.20;;
76463;SDS011;65301;46.666;20.110;2024-03-22T15:09:57;16.85;;;12.32;;
76463;SDS011;65301;46.666;20.110;2024-03-22T15:12:58;16.60;;;11.70;;
76463;SDS011;65301;46.666;20.110;2024-03-22T15:15:59;17.08;;;12.82;;
76463;SDS011;65301;46.666;20.110;2024-03-22T15:19:00;18.27;;;12.18;;
76463;SDS011;65301;46.666;20.110;2024-03-22T15:22:01;18.40;;;12.43;;
76463;SDS011;65301;46.666;20.110;2024-03-22T15:25:02;23.47;;;13.60;;
76463;SDS011;65301;46.666;20.110;2024-03-22T15:28:06;16.77;;;12.00;;
76463;SDS011;65301;46.666;20.110;2024-03-22T15:31:06;21.47;;;14.00;;
76463;SDS011;65301;46.666;20.110;2024-03-22T15:34:07;19.40;;;13.45;;
76463;SDS011;65301;46.666;20.110;2024-03-22T15:37:08;21.83;;;13.52;;
76463;SDS011;65301;46.666;20.110;2024-03-22T15:40:09;17.87;;;12.43;;
76463;SDS011;65301;46.666;20.110;2024-03-22T15:43:10;19.65;;;12.93;;
76463;SDS011;65301;46.666;20.110;2024-03-22T15:46:11;22.63;;;13.25;;
76463;SDS011;65301;46.666;20.110;2024-03-22T15:49:12;23.53;;;14.13;;
76463;SDS011;65301;46.666;20.110;2024-03-22T15:52:14;21.90;;;13.35;;
76463;SDS011;65301;46.666;20.110;2024-03-22T15:55:15;20.38;;;12.10;;
76463;SDS011;65301;46.666;20.110;2024-03-22T15:58:15;18.60;;;12.97;;
76463;SDS011;65301;46.666;20.110;2024-03-22T16:01:16;19.98;;;12.98;;
76463;SDS011;65301;46.666;20.110;2024-03-22T16:04:17;17.77;;;12.57;;
76463;SDS011;65301;46.666;20.110;2024-03-22T16:07:18;60.65;;;34.35;;
76463;SDS011;65301;46.666;20.110;2024-03-22T16:10:19;34.17;;;22.38;;
76463;SDS011;65301;46.666;20.110;2024-03-22T16:13:20;20.30;;;13.50;;
76463;SDS011;65301;46.666;20.110;2024-03-22T16:16:21;19.65;;;13.05;;
76463;SDS011;65301;46.666;20.110;2024-03-22T16:19:21;19.40;;;13.30;;
76463;SDS011;65301;46.666;20.110;2024-03-22T16:22:22;18.45;;;13.23;;
76463;SDS011;65301;46.666;20.110;2024-03-22T16:25:23;19.05;;;13.23;;
76463;SDS011;65301;46.666;20.110;2024-03-22T16:28:24;28.03;;;15.23;;
76463;SDS011;65301;46.666;20.110;2024-03-22T16:31:27;19.92;;;12.52;;
76463;SDS011;65301;46.666;20.110;2024-03-22T16:34:28;17.02;;;11.98;;
76463;SDS011;65301;46.666;20.110;2024-03-22T16:37:28;17.63;;;12.30;;
76463;SDS011;65301;46.666;20.110;2024-03-22T16:40:29;17.65;;;13.00;;
76463;SDS011;65301;46.666;20.110;2024-03-22T16:43:31;19.92;;;13.45;;
76463;SDS011;65301;46.666;20.110;2024-03-22T16:46:31;17.77;;;13.30;;
76463;SDS011;65301;46.666;20.110;2024-03-22T16:49:33;18.98;;;13.00;;
76463;SDS011;65301;46.666;20.110;2024-03-22T16:52:34;21.80;;;13.32;;
76463;SDS011;65301;46.666;20.110;2024-03-22T16:55:36;19.13;;;13.07;;
76463;SDS011;65301;46.666;20.110;2024-03-22T16:58:37;21.80;;;14.03;;
76463;SDS011;65301;46.666;20.110;2024-03-22T17:01:38;20.77;;;13.80;;
76463;SDS011;65301;46.666;20.110;2024-03-22T17:04:39;19.55;;;13.10;;
76463;SDS011;65301;46.666;20.110;2024-03-22T17:07:40;17.70;;;13.10;;
76463;SDS011;65301;46.666;20.110;2024-03-22T17:10:41;17.80;;;13.00;;
76463;SDS011;65301;46.666;20.110;2024-03-22T17:13:42;24.20;;;13.27;;
76463;SDS011;65301;46.666;20.110;2024-03-22T17:16:44;19.25;;;13.05;;
76463;SDS011;65301;46.666;20.110;2024-03-22T17:19:47;26.17;;;14.30;;
76463;SDS011;65301;46.666;20.110;2024-03-22T17:22:48;19.97;;;14.73;;
76463;SDS011;65301;46.666;20.110;2024-03-22T17:25:48;20.23;;;14.20;;
76463;SDS011;65301;46.666;20.110;2024-03-22T17:28:49;28.83;;;17.30;;
76463;SDS011;65301;46.666;20.110;2024-03-22T17:31:50;21.65;;;15.20;;